sensor_id;sensor_type;location;lat;lon;timestamp;pressure;altitude;pressure_sealevel;temperature
75273;BMP280;63869;52.344;16.928;2023-07-31T00:02:06;100295.63;;;16.65
75273;BMP280;63869;52.344;16.928;2023-07-31T00:04:31;100298.31;;;16.65
75273;BMP280;63869;52.344;16.928;2023-07-31T00:06:57;100291.59;;;16.60
75273;BMP280;63869;52.344;16.928;2023-07-31T00:09:22;100297.94;;;16.57
75273;BMP280;63869;52.344;16.928;2023-07-31T00:11:47;100292.66;;;16.53
75273;BMP280;63869;52.344;16.928;2023-07-31T00:14:12;100285.19;;;16.48
75273;BMP280;63869;52.344;16.928;2023-07-31T00:16:38;100287.75;;;16.43
75273;BMP280;63869;52.344;16.928;2023-07-31T00:19:03;100291.84;;;16.38
75273;BMP280;63869;52.344;16.928;2023-07-31T00:21:28;100290.94;;;16.32
75273;BMP280;63869;52.344;16.928;2023-07-31T00:23:53;100289.34;;;16.26
75273;BMP280;63869;52.344;16.928;2023-07-31T00:26:18;100287.25;;;16.20
75273;BMP280;63869;52.344;16.928;2023-07-31T00:28:44;100293.72;;;16.14
75273;BMP280;63869;52.344;16.928;2023-07-31T00:31:09;100293.13;;;16.10
75273;BMP280;63869;52.344;16.928;2023-07-31T00:33:34;100284.88;;;16.04
75273;BMP280;63869;52.344;16.928;2023-07-31T00:36:00;100285.78;;;16.01
75273;BMP280;63869;52.344;16.928;2023-07-31T00:38:25;100290.59;;;15.97
75273;BMP280;63869;52.344;16.928;2023-07-31T00:40:50;100286.56;;;15.93
75273;BMP280;63869;52.344;16.928;2023-07-31T00:43:15;100286.69;;;15.89
75273;BMP280;63869;52.344;16.928;2023-07-31T00:45:40;100277.56;;;15.87
75273;BMP280;63869;52.344;16.928;2023-07-31T00:48:07;100283.13;;;15.83
75273;BMP280;63869;52.344;16.928;2023-07-31T00:50:32;100280.56;;;15.79
75273;BMP280;63869;52.344;16.928;2023-07-31T00:52:58;100288.84;;;15.76
75273;BMP280;63869;52.344;16.928;2023-07-31T00:55:23;100276.69;;;15.71
75273;BMP280;63869;52.344;16.928;2023-07-31T00:57:48;100282.97;;;15.68
75273;BMP280;63869;52.344;16.928;2023-07-31T01:00:14;100286.59;;;15.65
75273;BMP280;63869;52.344;16.928;2023-07-31T01:02:39;100276.69;;;15.62
75273;BMP280;63869;52.344;16.928;2023-07-31T01:05:04;100278.34;;;15.60
75273;BMP280;63869;52.344;16.928;2023-07-31T01:07:42;100279.97;;;15.57
75273;BMP280;63869;52.344;16.928;2023-07-31T01:10:22;100277.00;;;15.55
75273;BMP280;63869;52.344;16.928;2023-07-31T01:12:48;100275.94;;;15.53
75273;BMP280;63869;52.344;16.928;2023-07-31T01:15:14;100281.78;;;15.51
75273;BMP280;63869;52.344;16.928;2023-07-31T01:17:41;100279.06;;;15.51
75273;BMP280;63869;52.344;16.928;2023-07-31T01:20:10;100278.78;;;15.49
75273;BMP280;63869;52.344;16.928;2023-07-31T01:28:05;100284.31;;;15.45
75273;BMP280;63869;52.344;16.928;2023-07-31T01:30:32;100276.72;;;15.44
75273;BMP280;63869;52.344;16.928;2023-07-31T01:33:01;100275.97;;;15.43
75273;BMP280;63869;52.344;16.928;2023-07-31T01:35:31;100277.00;;;15.46
75273;BMP280;63869;52.344;16.928;2023-07-31T01:37:57;100278.19;;;15.45
75273;BMP280;63869;52.344;16.928;2023-07-31T01:40:22;100274.78;;;15.44
75273;BMP280;63869;52.344;16.928;2023-07-31T01:42:47;100274.03;;;15.44
75273;BMP280;63869;52.344;16.928;2023-07-31T01:45:12;100270.84;;;15.45
75273;BMP280;63869;52.344;16.928;2023-07-31T01:47:37;100275.78;;;15.47
75273;BMP280;63869;52.344;16.928;2023-07-31T01:50:03;100273.84;;;15.48
75273;BMP280;63869;52.344;16.928;2023-07-31T01:52:28;100273.84;;;15.48
75273;BMP280;63869;52.344;16.928;2023-07-31T01:54:55;100275.78;;;15.47
75273;BMP280;63869;52.344;16.928;2023-07-31T01:57:20;100274.28;;;15.46
75273;BMP280;63869;52.344;16.928;2023-07-31T01:59:45;100266.22;;;15.46
75273;BMP280;63869;52.344;16.928;2023-07-31T02:02:10;100269.38;;;15.44
75273;BMP280;63869;52.344;16.928;2023-07-31T02:04:35;100274.44;;;15.42
75273;BMP280;63869;52.344;16.928;2023-07-31T02:07:01;100273.69;;;15.42
75273;BMP280;63869;52.344;16.928;2023-07-31T02:09:26;100277.56;;;15.41
75273;BMP280;63869;52.344;16.928;2023-07-31T02:11:51;100268.72;;;15.40
75273;BMP280;63869;52.344;16.928;2023-07-31T02:14:16;100273.09;;;15.38
75273;BMP280;63869;52.344;16.928;2023-07-31T02:16:42;100269.34;;;15.35
75273;BMP280;63869;52.344;16.928;2023-07-31T02:19:07;100271.00;;;15.33
75273;BMP280;63869;52.344;16.928;2023-07-31T02:21:33;100269.19;;;15.30
75273;BMP280;63869;52.344;16.928;2023-07-31T02:23:58;100274.72;;;15.26
75273;BMP280;63869;52.344;16.928;2023-07-31T02:26:23;100277.84;;;15.25
75273;BMP280;63869;52.344;16.928;2023-07-31T02:28:48;100272.63;;;15.21
75273;BMP280;63869;52.344;16.928;2023-07-31T02:31:13;100275.75;;;15.20
75273;BMP280;63869;52.344;16.928;2023-07-31T02:33:39;100280.84;;;15.18
75273;BMP280;63869;52.344;16.928;2023-07-31T02:36:04;100276.69;;;15.17
75273;BMP280;63869;52.344;16.928;2023-07-31T02:38:29;100281.00;;;15.14
75273;BMP280;63869;52.344;16.928;2023-07-31T02:40:54;100277.69;;;15.10
75273;BMP280;63869;52.344;16.928;2023-07-31T02:43:19;100283.53;;;15.08
75273;BMP280;63869;52.344;16.928;2023-07-31T02:45:45;100274.38;;;15.06
75273;BMP280;63869;52.344;16.928;2023-07-31T02:48:10;100272.59;;;15.03
75273;BMP280;63869;52.344;16.928;2023-07-31T02:50:35;100272.28;;;15.01
75273;BMP280;63869;52.344;16.928;2023-07-31T02:53:00;100269.00;;;14.97
75273;BMP280;63869;52.344;16.928;2023-07-31T02:55:26;100276.00;;;14.94
75273;BMP280;63869;52.344;16.928;2023-07-31T02:57:51;100278.09;;;14.90
75273;BMP280;63869;52.344;16.928;2023-07-31T03:00:17;100275.84;;;14.89
75273;BMP280;63869;52.344;16.928;2023-07-31T03:02:42;100279.88;;;14.84
75273;BMP280;63869;52.344;16.928;2023-07-31T03:05:07;100282.72;;;14.81
75273;BMP280;63869;52.344;16.928;2023-07-31T03:07:33;100284.63;;;14.80
75273;BMP280;63869;52.344;16.928;2023-07-31T03:09:58;100283.56;;;14.78
75273;BMP280;63869;52.344;16.928;2023-07-31T03:12:23;100287.91;;;14.75
75273;BMP280;63869;52.344;16.928;2023-07-31T03:14:48;100288.34;;;14.74
75273;BMP280;63869;52.344;16.928;2023-07-31T03:17:13;100286.41;;;14.74
75273;BMP280;63869;52.344;16.928;2023-07-31T03:19:39;100278.03;;;14.72
75273;BMP280;63869;52.344;16.928;2023-07-31T03:22:04;100271.88;;;14.72
75273;BMP280;63869;52.344;16.928;2023-07-31T03:24:29;100274.59;;;14.72
75273;BMP280;63869;52.344;16.928;2023-07-31T03:26:54;100272.66;;;14.72
75273;BMP280;63869;52.344;16.928;2023-07-31T03:29:20;100264.88;;;14.74
75273;BMP280;63869;52.344;16.928;2023-07-31T03:31:45;100263.69;;;14.75
75273;BMP280;63869;52.344;16.928;2023-07-31T03:34:10;100263.22;;;14.77
75273;BMP280;63869;52.344;16.928;2023-07-31T03:36:35;100256.97;;;14.80
75273;BMP280;63869;52.344;16.928;2023-07-31T03:39:01;100268.78;;;14.82
75273;BMP280;63869;52.344;16.928;2023-07-31T03:41:26;100265.22;;;14.85
75273;BMP280;63869;52.344;16.928;2023-07-31T03:43:51;100267.31;;;14.90
75273;BMP280;63869;52.344;16.928;2023-07-31T03:46:21;100274.06;;;14.95
75273;BMP280;63869;52.344;16.928;2023-07-31T03:48:46;100272.44;;;14.97
75273;BMP280;63869;52.344;16.928;2023-07-31T03:51:11;100276.03;;;15.03
75273;BMP280;63869;52.344;16.928;2023-07-31T03:53:37;100276.31;;;15.05
75273;BMP280;63869;52.344;16.928;2023-07-31T03:56:02;100273.50;;;15.09
75273;BMP280;63869;52.344;16.928;2023-07-31T03:58:27;100274.53;;;15.12
75273;BMP280;63869;52.344;16.928;2023-07-31T04:00:52;100276.38;;;15.15
75273;BMP280;63869;52.344;16.928;2023-07-31T04:03:17;100276.22;;;15.18
75273;BMP280;63869;52.344;16.928;2023-07-31T04:05:43;100273.06;;;15.20
75273;BMP280;63869;52.344;16.928;2023-07-31T04:08:08;100285.94;;;15.25
75273;BMP280;63869;52.344;16.928;2023-07-31T04:10:33;100274.31;;;15.28
75273;BMP280;63869;52.344;16.928;2023-07-31T04:12:59;100273.41;;;15.31
75273;BMP280;63869;52.344;16.928;2023-07-31T04:15:24;100283.56;;;15.36
75273;BMP280;63869;52.344;16.928;2023-07-31T04:17:49;100274.59;;;15.39
75273;BMP280;63869;52.344;16.928;2023-07-31T04:20:15;100268.28;;;15.42
75273;BMP280;63869;52.344;16.928;2023-07-31T04:22:40;100275.50;;;15.45
75273;BMP280;63869;52.344;16.928;2023-07-31T04:25:05;100276.84;;;15.50
75273;BMP280;63869;52.344;16.928;2023-07-31T04:27:31;100277.00;;;15.55
75273;BMP280;63869;52.344;16.928;2023-07-31T04:29:56;100264.13;;;15.59
75273;BMP280;63869;52.344;16.928;2023-07-31T04:32:21;100268.31;;;15.60
75273;BMP280;63869;52.344;16.928;2023-07-31T04:34:47;100272.53;;;15.61
75273;BMP280;63869;52.344;16.928;2023-07-31T04:37:12;100280.13;;;15.63
75273;BMP280;63869;52.344;16.928;2023-07-31T04:39:39;100276.38;;;15.69
75273;BMP280;63869;52.344;16.928;2023-07-31T04:42:07;100275.78;;;15.74
75273;BMP280;63869;52.344;16.928;2023-07-31T04:44:38;100284.47;;;15.78
75273;BMP280;63869;52.344;16.928;2023-07-31T04:47:03;100283.56;;;15.81
75273;BMP280;63869;52.344;16.928;2023-07-31T04:49:32;100274.13;;;15.86
75273;BMP280;63869;52.344;16.928;2023-07-31T04:51:57;100272.75;;;15.91
75273;BMP280;63869;52.344;16.928;2023-07-31T04:54:23;100273.84;;;15.93
75273;BMP280;63869;52.344;16.928;2023-07-31T04:56:48;100281.44;;;15.95
75273;BMP280;63869;52.344;16.928;2023-07-31T04:59:17;100280.56;;;15.98
75273;BMP280;63869;52.344;16.928;2023-07-31T05:01:43;100275.91;;;15.98
75273;BMP280;63869;52.344;16.928;2023-07-31T05:04:15;100277.84;;;15.98
75273;BMP280;63869;52.344;16.928;2023-07-31T05:06:41;100271.53;;;16.01
75273;BMP280;63869;52.344;16.928;2023-07-31T05:09:08;100273.50;;;16.00
75273;BMP280;63869;52.344;16.928;2023-07-31T05:11:34;100271.84;;;16.03
75273;BMP280;63869;52.344;16.928;2023-07-31T05:13:59;100268.22;;;16.06
75273;BMP280;63869;52.344;16.928;2023-07-31T05:16:25;100268.38;;;16.11
75273;BMP280;63869;52.344;16.928;2023-07-31T05:18:55;100271.19;;;16.17
75273;BMP280;63869;52.344;16.928;2023-07-31T05:21:23;100263.25;;;16.23
75273;BMP280;63869;52.344;16.928;2023-07-31T05:23:49;100268.78;;;16.28
75273;BMP280;63869;52.344;16.928;2023-07-31T05:26:14;100271.00;;;16.39
75273;BMP280;63869;52.344;16.928;2023-07-31T05:28:39;100269.63;;;16.43
75273;BMP280;63869;52.344;16.928;2023-07-31T05:31:05;100261.94;;;16.51
75273;BMP280;63869;52.344;16.928;2023-07-31T05:33:30;100259.22;;;16.60
75273;BMP280;63869;52.344;16.928;2023-07-31T05:35:55;100257.50;;;16.72
75273;BMP280;63869;52.344;16.928;2023-07-31T05:38:21;100253.06;;;16.83
75273;BMP280;63869;52.344;16.928;2023-07-31T05:40:46;100247.72;;;16.98
75273;BMP280;63869;52.344;16.928;2023-07-31T05:43:11;100251.22;;;17.13
75273;BMP280;63869;52.344;16.928;2023-07-31T05:45:37;100254.09;;;17.33
75273;BMP280;63869;52.344;16.928;2023-07-31T05:48:02;100257.63;;;17.54
75273;BMP280;63869;52.344;16.928;2023-07-31T05:50:27;100255.78;;;17.75
75273;BMP280;63869;52.344;16.928;2023-07-31T05:52:53;100245.34;;;17.97
75273;BMP280;63869;52.344;16.928;2023-07-31T05:55:18;100247.34;;;18.17
75273;BMP280;63869;52.344;16.928;2023-07-31T05:57:43;100249.84;;;18.35
75273;BMP280;63869;52.344;16.928;2023-07-31T06:00:10;100247.06;;;18.50
75273;BMP280;63869;52.344;16.928;2023-07-31T06:02:38;100252.38;;;18.59
75273;BMP280;63869;52.344;16.928;2023-07-31T06:05:04;100251.97;;;18.66
75273;BMP280;63869;52.344;16.928;2023-07-31T06:07:30;100250.66;;;18.76
75273;BMP280;63869;52.344;16.928;2023-07-31T06:09:56;100250.97;;;18.84
75273;BMP280;63869;52.344;16.928;2023-07-31T06:12:22;100251.38;;;18.97
75273;BMP280;63869;52.344;16.928;2023-07-31T06:14:47;100241.66;;;19.11
75273;BMP280;63869;52.344;16.928;2023-07-31T06:17:13;100239.63;;;19.26
75273;BMP280;63869;52.344;16.928;2023-07-31T06:19:38;100246.09;;;19.34
75273;BMP280;63869;52.344;16.928;2023-07-31T06:22:03;100242.72;;;19.39
75273;BMP280;63869;52.344;16.928;2023-07-31T06:24:28;100242.03;;;19.50
75273;BMP280;63869;52.344;16.928;2023-07-31T06:26:54;100240.41;;;19.63
75273;BMP280;63869;52.344;16.928;2023-07-31T06:29:20;100236.09;;;19.77
75273;BMP280;63869;52.344;16.928;2023-07-31T06:31:45;100237.94;;;19.91
75273;BMP280;63869;52.344;16.928;2023-07-31T06:34:10;100237.31;;;20.02
75273;BMP280;63869;52.344;16.928;2023-07-31T06:36:35;100240.06;;;20.13
75273;BMP280;63869;52.344;16.928;2023-07-31T06:39:01;100236.97;;;20.31
75273;BMP280;63869;52.344;16.928;2023-07-31T06:41:26;100244.38;;;20.36
75273;BMP280;63869;52.344;16.928;2023-07-31T06:43:51;100244.88;;;20.40
75273;BMP280;63869;52.344;16.928;2023-07-31T06:46:17;100247.19;;;20.47
75273;BMP280;63869;52.344;16.928;2023-07-31T06:48:42;100246.72;;;20.60
75273;BMP280;63869;52.344;16.928;2023-07-31T06:51:07;100250.44;;;20.63
75273;BMP280;63869;52.344;16.928;2023-07-31T06:53:32;100246.22;;;20.56
75273;BMP280;63869;52.344;16.928;2023-07-31T06:55:57;100247.69;;;20.57
75273;BMP280;63869;52.344;16.928;2023-07-31T06:58:23;100246.66;;;20.49
75273;BMP280;63869;52.344;16.928;2023-07-31T07:00:48;100255.03;;;20.45
75273;BMP280;63869;52.344;16.928;2023-07-31T07:03:14;100238.00;;;20.39
75273;BMP280;63869;52.344;16.928;2023-07-31T07:05:40;100241.00;;;20.47
75273;BMP280;63869;52.344;16.928;2023-07-31T07:08:05;100243.00;;;20.52
75273;BMP280;63869;52.344;16.928;2023-07-31T07:10:30;100246.22;;;20.61
75273;BMP280;63869;52.344;16.928;2023-07-31T07:12:56;100250.94;;;20.67
75273;BMP280;63869;52.344;16.928;2023-07-31T07:15:21;100248.94;;;20.61
75273;BMP280;63869;52.344;16.928;2023-07-31T07:17:46;100242.28;;;20.57
75273;BMP280;63869;52.344;16.928;2023-07-31T07:20:12;100244.22;;;20.51
75273;BMP280;63869;52.344;16.928;2023-07-31T07:22:37;100256.25;;;20.44
75273;BMP280;63869;52.344;16.928;2023-07-31T07:25:03;100242.16;;;20.35
75273;BMP280;63869;52.344;16.928;2023-07-31T07:27:28;100248.34;;;20.35
75273;BMP280;63869;52.344;16.928;2023-07-31T07:29:53;100242.16;;;20.40
75273;BMP280;63869;52.344;16.928;2023-07-31T07:32:19;100241.94;;;20.38
75273;BMP280;63869;52.344;16.928;2023-07-31T07:34:44;100249.34;;;20.43
75273;BMP280;63869;52.344;16.928;2023-07-31T07:37:11;100256.50;;;20.41
75273;BMP280;63869;52.344;16.928;2023-07-31T07:39:36;100255.25;;;20.31
75273;BMP280;63869;52.344;16.928;2023-07-31T07:42:02;100255.25;;;20.31
75273;BMP280;63869;52.344;16.928;2023-07-31T07:44:28;100253.03;;;20.35
75273;BMP280;63869;52.344;16.928;2023-07-31T07:46:57;100252.31;;;20.40
75273;BMP280;63869;52.344;16.928;2023-07-31T07:49:23;100257.53;;;20.49
75273;BMP280;63869;52.344;16.928;2023-07-31T07:51:49;100261.50;;;20.53
75273;BMP280;63869;52.344;16.928;2023-07-31T07:54:14;100269.19;;;20.60
75273;BMP280;63869;52.344;16.928;2023-07-31T07:56:39;100262.28;;;20.59
75273;BMP280;63869;52.344;16.928;2023-07-31T07:59:05;100266.22;;;20.58
75273;BMP280;63869;52.344;16.928;2023-07-31T08:01:30;100261.50;;;20.53
75273;BMP280;63869;52.344;16.928;2023-07-31T08:03:56;100260.78;;;20.58
75273;BMP280;63869;52.344;16.928;2023-07-31T08:06:21;100264.00;;;20.57
75273;BMP280;63869;52.344;16.928;2023-07-31T08:08:47;100262.66;;;20.41
75273;BMP280;63869;52.344;16.928;2023-07-31T08:11:12;100259.91;;;20.30
75273;BMP280;63869;52.344;16.928;2023-07-31T08:13:38;100259.88;;;20.25
75273;BMP280;63869;52.344;16.928;2023-07-31T08:16:03;100252.66;;;20.16
75273;BMP280;63869;52.344;16.928;2023-07-31T08:18:29;100258.84;;;20.16
75273;BMP280;63869;52.344;16.928;2023-07-31T08:20:54;100259.63;;;20.23
75273;BMP280;63869;52.344;16.928;2023-07-31T08:23:19;100256.22;;;20.33
75273;BMP280;63869;52.344;16.928;2023-07-31T08:25:44;100262.44;;;20.39
75273;BMP280;63869;52.344;16.928;2023-07-31T08:28:10;100257.72;;;20.34
75273;BMP280;63869;52.344;16.928;2023-07-31T08:30:36;100263.63;;;20.33
75273;BMP280;63869;52.344;16.928;2023-07-31T08:33:01;100259.63;;;20.28
75273;BMP280;63869;52.344;16.928;2023-07-31T08:35:28;100263.09;;;20.23
75273;BMP280;63869;52.344;16.928;2023-07-31T08:37:54;100265.22;;;20.13
75273;BMP280;63869;52.344;16.928;2023-07-31T08:40:19;100252.13;;;20.12
75273;BMP280;63869;52.344;16.928;2023-07-31T08:42:48;100256.41;;;20.24
75273;BMP280;63869;52.344;16.928;2023-07-31T08:45:17;100268.81;;;20.36
75273;BMP280;63869;52.344;16.928;2023-07-31T08:47:44;100256.06;;;20.48
75273;BMP280;63869;52.344;16.928;2023-07-31T08:50:10;100253.91;;;20.63
75273;BMP280;63869;52.344;16.928;2023-07-31T08:52:36;100250.25;;;20.77
75273;BMP280;63869;52.344;16.928;2023-07-31T08:55:03;100246.56;;;20.80
75273;BMP280;63869;52.344;16.928;2023-07-31T08:57:28;100252.22;;;20.82
75273;BMP280;63869;52.344;16.928;2023-07-31T08:59:53;100245.13;;;20.96
75273;BMP280;63869;52.344;16.928;2023-07-31T09:02:19;100251.59;;;21.10
75273;BMP280;63869;52.344;16.928;2023-07-31T09:04:45;100225.84;;;20.99
75273;BMP280;63869;52.344;16.928;2023-07-31T09:07:10;100244.91;;;21.22
75273;BMP280;63869;52.344;16.928;2023-07-31T09:09:38;100241.19;;;21.19
75273;BMP280;63869;52.344;16.928;2023-07-31T09:12:04;100250.59;;;21.18
75273;BMP280;63869;52.344;16.928;2023-07-31T09:14:29;100243.91;;;21.14
75273;BMP280;63869;52.344;16.928;2023-07-31T09:16:55;100249.09;;;21.17
75273;BMP280;63869;52.344;16.928;2023-07-31T09:19:34;100248.53;;;20.91
75273;BMP280;63869;52.344;16.928;2023-07-31T09:22:02;100245.28;;;20.76
75273;BMP280;63869;52.344;16.928;2023-07-31T09:24:28;100243.94;;;20.49
75273;BMP280;63869;52.344;16.928;2023-07-31T09:26:57;100244.31;;;20.25
75273;BMP280;63869;52.344;16.928;2023-07-31T09:29:42;100245.44;;;20.02
75273;BMP280;63869;52.344;16.928;2023-07-31T09:32:15;100256.47;;;19.93
75273;BMP280;63869;52.344;16.928;2023-07-31T09:34:42;100251.91;;;19.78
75273;BMP280;63869;52.344;16.928;2023-07-31T09:37:07;100252.16;;;19.49
75273;BMP280;63869;52.344;16.928;2023-07-31T09:39:56;100249.50;;;19.29
75273;BMP280;63869;52.344;16.928;2023-07-31T09:42:24;100238.88;;;19.25
75273;BMP280;63869;52.344;16.928;2023-07-31T09:44:49;100264.00;;;19.26
75273;BMP280;63869;52.344;16.928;2023-07-31T09:47:21;100246.84;;;19.09
75273;BMP280;63869;52.344;16.928;2023-07-31T09:49:48;100255.16;;;18.85
75273;BMP280;63869;52.344;16.928;2023-07-31T09:52:14;100260.00;;;18.75
75273;BMP280;63869;52.344;16.928;2023-07-31T09:54:40;100259.47;;;18.56
75273;BMP280;63869;52.344;16.928;2023-07-31T09:57:05;100261.84;;;18.49
75273;BMP280;63869;52.344;16.928;2023-07-31T09:59:30;100257.03;;;18.24
75273;BMP280;63869;52.344;16.928;2023-07-31T10:01:55;100248.94;;;18.24
75273;BMP280;63869;52.344;16.928;2023-07-31T10:04:21;100243.94;;;18.37
75273;BMP280;63869;52.344;16.928;2023-07-31T10:06:50;100245.41;;;18.52
75273;BMP280;63869;52.344;16.928;2023-07-31T10:09:17;100246.84;;;18.68
75273;BMP280;63869;52.344;16.928;2023-07-31T10:11:46;100236.66;;;18.83
75273;BMP280;63869;52.344;16.928;2023-07-31T10:14:16;100227.59;;;19.07
75273;BMP280;63869;52.344;16.928;2023-07-31T10:16:42;100224.88;;;19.32
75273;BMP280;63869;52.344;16.928;2023-07-31T10:19:09;100227.47;;;19.47
75273;BMP280;63869;52.344;16.928;2023-07-31T10:21:38;100217.97;;;19.63
75273;BMP280;63869;52.344;16.928;2023-07-31T10:24:07;100223.94;;;19.67
75273;BMP280;63869;52.344;16.928;2023-07-31T10:26:33;100217.25;;;19.62
75273;BMP280;63869;52.344;16.928;2023-07-31T10:28:59;100212.78;;;19.59
75273;BMP280;63869;52.344;16.928;2023-07-31T10:31:26;100223.31;;;19.52
75273;BMP280;63869;52.344;16.928;2023-07-31T10:33:52;100213.41;;;19.43
75273;BMP280;63869;52.344;16.928;2023-07-31T10:36:18;100216.25;;;19.34
75273;BMP280;63869;52.344;16.928;2023-07-31T10:38:44;100211.97;;;19.22
75273;BMP280;63869;52.344;16.928;2023-07-31T10:41:10;100211.84;;;19.11
75273;BMP280;63869;52.344;16.928;2023-07-31T10:43:36;100214.03;;;19.07
75273;BMP280;63869;52.344;16.928;2023-07-31T10:46:05;100216.41;;;18.99
75273;BMP280;63869;52.344;16.928;2023-07-31T10:48:33;100198.19;;;19.00
75273;BMP280;63869;52.344;16.928;2023-07-31T10:50:58;100206.03;;;18.97
75273;BMP280;63869;52.344;16.928;2023-07-31T10:53:31;100204.41;;;19.06
75273;BMP280;63869;52.344;16.928;2023-07-31T10:56:00;100199.78;;;19.12
75273;BMP280;63869;52.344;16.928;2023-07-31T10:58:25;100199.41;;;19.24
75273;BMP280;63869;52.344;16.928;2023-07-31T11:00:51;100191.75;;;19.49
75273;BMP280;63869;52.344;16.928;2023-07-31T11:03:27;100192.91;;;19.73
75273;BMP280;63869;52.344;16.928;2023-07-31T11:06:05;100196.19;;;19.83
75273;BMP280;63869;52.344;16.928;2023-07-31T11:08:31;100194.56;;;19.97
75273;BMP280;63869;52.344;16.928;2023-07-31T11:13:28;100185.19;;;20.51
75273;BMP280;63869;52.344;16.928;2023-07-31T11:15:53;100188.25;;;20.87
75273;BMP280;63869;52.344;16.928;2023-07-31T11:18:19;100183.59;;;21.10
75273;BMP280;63869;52.344;16.928;2023-07-31T11:20:44;100182.13;;;21.31
75273;BMP280;63869;52.344;16.928;2023-07-31T11:23:10;100185.56;;;21.48
75273;BMP280;63869;52.344;16.928;2023-07-31T11:25:35;100181.59;;;21.60
75273;BMP280;63869;52.344;16.928;2023-07-31T11:28:04;100184.31;;;21.66
75273;BMP280;63869;52.344;16.928;2023-07-31T11:30:30;100181.09;;;21.78
75273;BMP280;63869;52.344;16.928;2023-07-31T11:32:55;100185.47;;;21.87
75273;BMP280;63869;52.344;16.928;2023-07-31T11:35:20;100169.13;;;21.87
75273;BMP280;63869;52.344;16.928;2023-07-31T11:37:46;100171.91;;;21.81
75273;BMP280;63869;52.344;16.928;2023-07-31T11:40:11;100174.91;;;21.72
75273;BMP280;63869;52.344;16.928;2023-07-31T11:42:36;100163.31;;;21.44
75273;BMP280;63869;52.344;16.928;2023-07-31T11:45:05;100160.38;;;21.31
75273;BMP280;63869;52.344;16.928;2023-07-31T11:47:31;100156.38;;;21.04
75273;BMP280;63869;52.344;16.928;2023-07-31T11:50:01;100159.81;;;20.82
75273;BMP280;63869;52.344;16.928;2023-07-31T11:52:32;100141.53;;;20.77
75273;BMP280;63869;52.344;16.928;2023-07-31T11:54:58;100149.19;;;20.68
75273;BMP280;63869;52.344;16.928;2023-07-31T11:57:24;100145.19;;;20.57
75273;BMP280;63869;52.344;16.928;2023-07-31T11:59:49;100141.97;;;20.53
75273;BMP280;63869;52.344;16.928;2023-07-31T12:02:15;100141.97;;;20.53
75273;BMP280;63869;52.344;16.928;2023-07-31T12:04:41;100135.56;;;20.51
75273;BMP280;63869;52.344;16.928;2023-07-31T12:07:07;100144.66;;;20.42
75273;BMP280;63869;52.344;16.928;2023-07-31T12:09:32;100140.41;;;20.30
75273;BMP280;63869;52.344;16.928;2023-07-31T12:11:57;100134.69;;;20.17
75273;BMP280;63869;52.344;16.928;2023-07-31T12:14:26;100146.72;;;20.10
75273;BMP280;63869;52.344;16.928;2023-07-31T12:16:57;100140.00;;;19.95
75273;BMP280;63869;52.344;16.928;2023-07-31T12:19:24;100142.16;;;19.79
75273;BMP280;63869;52.344;16.928;2023-07-31T12:21:52;100141.13;;;19.71
75273;BMP280;63869;52.344;16.928;2023-07-31T12:24:18;100136.19;;;19.70
75273;BMP280;63869;52.344;16.928;2023-07-31T12:26:45;100136.53;;;19.89
75273;BMP280;63869;52.344;16.928;2023-07-31T12:29:11;100123.56;;;20.15
75273;BMP280;63869;52.344;16.928;2023-07-31T12:31:37;100124.44;;;20.54
75273;BMP280;63869;52.344;16.928;2023-07-31T12:34:14;100134.88;;;20.89
75273;BMP280;63869;52.344;16.928;2023-07-31T12:36:39;100125.00;;;20.97
75273;BMP280;63869;52.344;16.928;2023-07-31T12:39:04;100127.47;;;20.90
75273;BMP280;63869;52.344;16.928;2023-07-31T12:41:30;100113.13;;;20.78
75273;BMP280;63869;52.344;16.928;2023-07-31T12:43:55;100114.88;;;20.98
75273;BMP280;63869;52.344;16.928;2023-07-31T12:46:20;100109.94;;;21.02
75273;BMP280;63869;52.344;16.928;2023-07-31T12:48:45;100116.59;;;20.79
75273;BMP280;63869;52.344;16.928;2023-07-31T12:51:11;100109.13;;;20.51
75273;BMP280;63869;52.344;16.928;2023-07-31T12:53:36;100095.31;;;20.55
75273;BMP280;63869;52.344;16.928;2023-07-31T12:56:01;100097.06;;;20.80
75273;BMP280;63869;52.344;16.928;2023-07-31T12:58:27;100093.81;;;21.32
75273;BMP280;63869;52.344;16.928;2023-07-31T13:00:52;100100.38;;;21.86
75273;BMP280;63869;52.344;16.928;2023-07-31T13:03:17;100088.38;;;22.12
75273;BMP280;63869;52.344;16.928;2023-07-31T13:05:42;100096.66;;;22.36
75273;BMP280;63869;52.344;16.928;2023-07-31T13:08:08;100075.91;;;22.27
75273;BMP280;63869;52.344;16.928;2023-07-31T13:10:33;100095.22;;;22.29
75273;BMP280;63869;52.344;16.928;2023-07-31T13:12:58;100086.16;;;22.10
75273;BMP280;63869;52.344;16.928;2023-07-31T13:15:23;100092.19;;;21.86
75273;BMP280;63869;52.344;16.928;2023-07-31T13:17:49;100078.44;;;21.51
75273;BMP280;63869;52.344;16.928;2023-07-31T13:20:14;100082.47;;;21.17
75273;BMP280;63869;52.344;16.928;2023-07-31T13:22:39;100075.81;;;21.01
75273;BMP280;63869;52.344;16.928;2023-07-31T13:25:05;100078.53;;;21.01
75273;BMP280;63869;52.344;16.928;2023-07-31T13:27:31;100067.66;;;21.12
75273;BMP280;63869;52.344;16.928;2023-07-31T13:29:56;100063.91;;;21.21
75273;BMP280;63869;52.344;16.928;2023-07-31T13:32:21;100064.38;;;21.36
75273;BMP280;63869;52.344;16.928;2023-07-31T13:34:47;100068.06;;;21.55
75273;BMP280;63869;52.344;16.928;2023-07-31T13:37:12;100065.78;;;21.70
75273;BMP280;63869;52.344;16.928;2023-07-31T13:39:38;100065.47;;;21.85
75273;BMP280;63869;52.344;16.928;2023-07-31T13:42:03;100056.97;;;22.00
75273;BMP280;63869;52.344;16.928;2023-07-31T13:44:31;100050.63;;;22.27
75273;BMP280;63869;52.344;16.928;2023-07-31T13:46:56;100052.97;;;22.47